sensor_id;sensor_type;location;lat;lon;timestamp;P1;durP1;ratioP1;P2;durP2;ratioP2
35803;SDS011;21924;51.934;7.414;2023-02-23T00:02:29;94.28;;;42.78;;
35803;SDS011;21924;51.934;7.414;2023-02-23T00:05:13;93.80;;;41.45;;
35803;SDS011;21924;51.934;7.414;2023-02-23T00:07:58;102.50;;;42.72;;
35803;SDS011;21924;51.934;7.414;2023-02-23T00:10:42;88.15;;;42.05;;
35803;SDS011;21924;51.934;7.414;2023-02-23T00:13:27;102.70;;;44.53;;
35803;SDS011;21924;51.934;7.414;2023-02-23T00:16:14;94.72;;;42.17;;
35803;SDS011;21924;51.934;7.414;2023-02-23T00:19:00;114.35;;;45.35;;
35803;SDS011;21924;51.934;7.414;2023-02-23T00:21:44;110.57;;;46.97;;
35803;SDS011;21924;51.934;7.414;2023-02-23T00:24:29;120.90;;;48.50;;
35803;SDS011;21924;51.934;7.414;2023-02-23T00:27:13;115.30;;;44.35;;
35803;SDS011;21924;51.934;7.414;2023-02-23T00:30:00;115.85;;;44.58;;
35803;SDS011;21924;51.934;7.414;2023-02-23T00:32:45;125.95;;;50.60;;
35803;SDS011;21924;51.934;7.414;2023-02-23T00:35:29;128.50;;;49.45;;
35803;SDS011;21924;51.934;7.414;2023-02-23T00:38:13;132.15;;;50.45;;
35803;SDS011;21924;51.934;7.414;2023-02-23T00:40:57;126.75;;;48.63;;
35803;SDS011;21924;51.934;7.414;2023-02-23T00:43:42;124.53;;;48.33;;
35803;SDS011;21924;51.934;7.414;2023-02-23T00:46:32;127.88;;;48.13;;
35803;SDS011;21924;51.934;7.414;2023-02-23T00:49:17;122.97;;;49.08;;
35803;SDS011;21924;51.934;7.414;2023-02-23T00:52:03;136.10;;;50.85;;
35803;SDS011;21924;51.934;7.414;2023-02-23T00:54:48;135.75;;;52.67;;
35803;SDS011;21924;51.934;7.414;2023-02-23T00:57:32;124.22;;;47.45;;
35803;SDS011;21924;51.934;7.414;2023-02-23T01:00:17;123.78;;;51.25;;
35803;SDS011;21924;51.934;7.414;2023-02-23T01:03:03;129.93;;;52.13;;
35803;SDS011;21924;51.934;7.414;2023-02-23T01:05:47;128.88;;;50.08;;
35803;SDS011;21924;51.934;7.414;2023-02-23T01:08:35;130.98;;;51.30;;
35803;SDS011;21924;51.934;7.414;2023-02-23T01:11:25;131.60;;;52.72;;
35803;SDS011;21924;51.934;7.414;2023-02-23T01:14:11;123.40;;;48.65;;
35803;SDS011;21924;51.934;7.414;2023-02-23T01:16:55;127.57;;;50.75;;
35803;SDS011;21924;51.934;7.414;2023-02-23T01:19:39;123.80;;;51.05;;
35803;SDS011;21924;51.934;7.414;2023-02-23T01:22:23;128.50;;;53.55;;
35803;SDS011;21924;51.934;7.414;2023-02-23T01:25:08;123.22;;;50.78;;
35803;SDS011;21924;51.934;7.414;2023-02-23T01:27:55;133.63;;;51.50;;
35803;SDS011;21924;51.934;7.414;2023-02-23T01:30:39;131.70;;;51.00;;
35803;SDS011;21924;51.934;7.414;2023-02-23T01:33:23;133.80;;;53.03;;
35803;SDS011;21924;51.934;7.414;2023-02-23T01:36:08;143.48;;;55.10;;
35803;SDS011;21924;51.934;7.414;2023-02-23T01:38:52;142.93;;;52.28;;
35803;SDS011;21924;51.934;7.414;2023-02-23T01:41:40;130.27;;;51.58;;
35803;SDS011;21924;51.934;7.414;2023-02-23T01:47:14;133.10;;;51.90;;
35803;SDS011;21924;51.934;7.414;2023-02-23T01:49:59;139.70;;;52.90;;
35803;SDS011;21924;51.934;7.414;2023-02-23T01:52:44;136.60;;;52.97;;
35803;SDS011;21924;51.934;7.414;2023-02-23T01:55:31;133.88;;;50.88;;
35803;SDS011;21924;51.934;7.414;2023-02-23T01:58:17;141.05;;;53.00;;
35803;SDS011;21924;51.934;7.414;2023-02-23T02:01:02;135.20;;;54.05;;
35803;SDS011;21924;51.934;7.414;2023-02-23T02:03:54;115.00;;;49.33;;
35803;SDS011;21924;51.934;7.414;2023-02-23T02:06:40;126.05;;;49.13;;
35803;SDS011;21924;51.934;7.414;2023-02-23T02:09:28;124.43;;;51.72;;
35803;SDS011;21924;51.934;7.414;2023-02-23T02:12:20;148.90;;;54.60;;
35803;SDS011;21924;51.934;7.414;2023-02-23T02:15:06;128.10;;;50.88;;
35803;SDS011;21924;51.934;7.414;2023-02-23T02:21:07;128.98;;;51.33;;
35803;SDS011;21924;51.934;7.414;2023-02-23T02:24:07;140.18;;;54.60;;
35803;SDS011;21924;51.934;7.414;2023-02-23T02:36:50;134.80;;;52.55;;
35803;SDS011;21924;51.934;7.414;2023-02-23T02:40:00;146.27;;;54.47;;
35803;SDS011;21924;51.934;7.414;2023-02-23T02:43:00;134.50;;;53.83;;
35803;SDS011;21924;51.934;7.414;2023-02-23T02:45:59;131.68;;;53.03;;
35803;SDS011;21924;51.934;7.414;2023-02-23T02:51:54;128.57;;;51.17;;
35803;SDS011;21924;51.934;7.414;2023-02-23T02:54:50;136.10;;;52.00;;
35803;SDS011;21924;51.934;7.414;2023-02-23T02:57:45;132.30;;;51.75;;
35803;SDS011;21924;51.934;7.414;2023-02-23T03:00:37;139.57;;;54.38;;
35803;SDS011;21924;51.934;7.414;2023-02-23T03:03:45;135.30;;;53.00;;
35803;SDS011;21924;51.934;7.414;2023-02-23T03:06:55;123.38;;;50.42;;
35803;SDS011;21924;51.934;7.414;2023-02-23T03:10:22;146.98;;;54.97;;
35803;SDS011;21924;51.934;7.414;2023-02-23T03:13:44;119.90;;;50.65;;
35803;SDS011;21924;51.934;7.414;2023-02-23T03:17:05;132.02;;;53.72;;
35803;SDS011;21924;51.934;7.414;2023-02-23T03:20:29;126.60;;;50.33;;
35803;SDS011;21924;51.934;7.414;2023-02-23T03:30:51;117.35;;;48.58;;
35803;SDS011;21924;51.934;7.414;2023-02-23T03:34:08;127.50;;;50.92;;
35803;SDS011;21924;51.934;7.414;2023-02-23T03:37:18;126.07;;;49.25;;
35803;SDS011;21924;51.934;7.414;2023-02-23T03:40:38;135.55;;;52.38;;
35803;SDS011;21924;51.934;7.414;2023-02-23T03:43:52;119.47;;;52.20;;
35803;SDS011;21924;51.934;7.414;2023-02-23T03:47:00;128.45;;;52.05;;
35803;SDS011;21924;51.934;7.414;2023-02-23T03:50:06;131.60;;;49.80;;
35803;SDS011;21924;51.934;7.414;2023-02-23T03:53:13;130.40;;;50.85;;
35803;SDS011;21924;51.934;7.414;2023-02-23T03:56:21;131.00;;;52.88;;
35803;SDS011;21924;51.934;7.414;2023-02-23T03:59:29;129.43;;;53.58;;
35803;SDS011;21924;51.934;7.414;2023-02-23T04:02:38;131.73;;;51.38;;
35803;SDS011;21924;51.934;7.414;2023-02-23T04:05:42;119.88;;;51.92;;
35803;SDS011;21924;51.934;7.414;2023-02-23T04:08:47;121.55;;;50.05;;
35803;SDS011;21924;51.934;7.414;2023-02-23T04:12:03;135.05;;;50.78;;
35803;SDS011;21924;51.934;7.414;2023-02-23T04:18:06;127.25;;;51.63;;
35803;SDS011;21924;51.934;7.414;2023-02-23T04:20:56;132.75;;;52.25;;
35803;SDS011;21924;51.934;7.414;2023-02-23T04:23:40;140.23;;;51.85;;
35803;SDS011;21924;51.934;7.414;2023-02-23T04:26:25;135.52;;;53.22;;
35803;SDS011;21924;51.934;7.414;2023-02-23T04:29:10;127.32;;;50.17;;
35803;SDS011;21924;51.934;7.414;2023-02-23T04:31:55;126.57;;;50.13;;
35803;SDS011;21924;51.934;7.414;2023-02-23T04:34:39;122.85;;;50.30;;
35803;SDS011;21924;51.934;7.414;2023-02-23T04:37:23;128.38;;;50.47;;
35803;SDS011;21924;51.934;7.414;2023-02-23T04:40:08;132.63;;;52.70;;
35803;SDS011;21924;51.934;7.414;2023-02-23T04:42:53;138.77;;;54.75;;
35803;SDS011;21924;51.934;7.414;2023-02-23T04:45:38;134.32;;;51.75;;
35803;SDS011;21924;51.934;7.414;2023-02-23T04:48:22;131.95;;;51.47;;
35803;SDS011;21924;51.934;7.414;2023-02-23T04:51:07;124.18;;;49.97;;
35803;SDS011;21924;51.934;7.414;2023-02-23T04:53:52;144.23;;;53.95;;
35803;SDS011;21924;51.934;7.414;2023-02-23T04:56:36;132.07;;;53.30;;
35803;SDS011;21924;51.934;7.414;2023-02-23T04:59:22;138.20;;;54.88;;
35803;SDS011;21924;51.934;7.414;2023-02-23T05:02:06;140.43;;;55.17;;
35803;SDS011;21924;51.934;7.414;2023-02-23T05:04:51;135.55;;;55.63;;
35803;SDS011;21924;51.934;7.414;2023-02-23T05:07:35;127.32;;;53.83;;
35803;SDS011;21924;51.934;7.414;2023-02-23T05:10:20;132.75;;;54.75;;
35803;SDS011;21924;51.934;7.414;2023-02-23T05:13:04;146.15;;;53.88;;
35803;SDS011;21924;51.934;7.414;2023-02-23T05:15:49;143.40;;;53.95;;
35803;SDS011;21924;51.934;7.414;2023-02-23T05:18:33;137.45;;;53.78;;
35803;SDS011;21924;51.934;7.414;2023-02-23T05:21:17;148.10;;;53.80;;
35803;SDS011;21924;51.934;7.414;2023-02-23T05:24:01;141.98;;;54.85;;
35803;SDS011;21924;51.934;7.414;2023-02-23T05:26:46;136.82;;;56.42;;
35803;SDS011;21924;51.934;7.414;2023-02-23T05:29:31;134.82;;;53.83;;
35803;SDS011;21924;51.934;7.414;2023-02-23T05:32:15;140.48;;;54.17;;
35803;SDS011;21924;51.934;7.414;2023-02-23T05:35:00;132.27;;;53.85;;
35803;SDS011;21924;51.934;7.414;2023-02-23T05:37:44;133.38;;;53.40;;
35803;SDS011;21924;51.934;7.414;2023-02-23T05:40:29;140.75;;;53.55;;
35803;SDS011;21924;51.934;7.414;2023-02-23T05:43:13;137.05;;;52.03;;
35803;SDS011;21924;51.934;7.414;2023-02-23T05:45:57;144.73;;;53.03;;
35803;SDS011;21924;51.934;7.414;2023-02-23T05:48:43;150.23;;;54.50;;
35803;SDS011;21924;51.934;7.414;2023-02-23T05:51:28;142.20;;;52.97;;
35803;SDS011;21924;51.934;7.414;2023-02-23T05:56:58;140.38;;;50.22;;
35803;SDS011;21924;51.934;7.414;2023-02-23T05:59:42;152.35;;;55.22;;
35803;SDS011;21924;51.934;7.414;2023-02-23T06:02:27;138.27;;;53.20;;
35803;SDS011;21924;51.934;7.414;2023-02-23T06:05:11;138.27;;;51.83;;
35803;SDS011;21924;51.934;7.414;2023-02-23T06:07:56;129.65;;;49.30;;
35803;SDS011;21924;51.934;7.414;2023-02-23T06:10:41;135.88;;;52.47;;
35803;SDS011;21924;51.934;7.414;2023-02-23T06:13:25;114.38;;;48.17;;
35803;SDS011;21924;51.934;7.414;2023-02-23T06:16:10;139.05;;;52.42;;
35803;SDS011;21924;51.934;7.414;2023-02-23T06:18:54;136.05;;;51.08;;
35803;SDS011;21924;51.934;7.414;2023-02-23T06:21:38;130.88;;;50.42;;
35803;SDS011;21924;51.934;7.414;2023-02-23T06:24:23;144.90;;;53.17;;
35803;SDS011;21924;51.934;7.414;2023-02-23T06:27:08;155.15;;;52.65;;
35803;SDS011;21924;51.934;7.414;2023-02-23T06:29:52;145.70;;;53.85;;
35803;SDS011;21924;51.934;7.414;2023-02-23T06:32:36;137.10;;;53.67;;
35803;SDS011;21924;51.934;7.414;2023-02-23T06:35:20;147.55;;;55.92;;
35803;SDS011;21924;51.934;7.414;2023-02-23T06:38:05;146.98;;;53.80;;
35803;SDS011;21924;51.934;7.414;2023-02-23T06:40:50;157.00;;;56.50;;
35803;SDS011;21924;51.934;7.414;2023-02-23T06:43:34;159.90;;;54.25;;
35803;SDS011;21924;51.934;7.414;2023-02-23T06:46:18;162.95;;;54.70;;
35803;SDS011;21924;51.934;7.414;2023-02-23T06:49:02;163.63;;;58.38;;
35803;SDS011;21924;51.934;7.414;2023-02-23T06:51:47;156.48;;;56.53;;
35803;SDS011;21924;51.934;7.414;2023-02-23T06:54:31;156.75;;;55.63;;
35803;SDS011;21924;51.934;7.414;2023-02-23T06:57:16;139.07;;;53.92;;
35803;SDS011;21924;51.934;7.414;2023-02-23T07:00:02;161.77;;;57.70;;
35803;SDS011;21924;51.934;7.414;2023-02-23T07:02:47;165.10;;;58.22;;
35803;SDS011;21924;51.934;7.414;2023-02-23T07:05:31;174.15;;;57.78;;
35803;SDS011;21924;51.934;7.414;2023-02-23T07:08:15;172.80;;;58.70;;
35803;SDS011;21924;51.934;7.414;2023-02-23T07:11:04;184.38;;;61.40;;
35803;SDS011;21924;51.934;7.414;2023-02-23T07:13:52;188.55;;;60.15;;
35803;SDS011;21924;51.934;7.414;2023-02-23T07:16:36;163.48;;;56.80;;
35803;SDS011;21924;51.934;7.414;2023-02-23T07:19:21;167.48;;;55.17;;
35803;SDS011;21924;51.934;7.414;2023-02-23T07:22:06;167.60;;;55.85;;
35803;SDS011;21924;51.934;7.414;2023-02-23T07:24:50;154.38;;;53.97;;
35803;SDS011;21924;51.934;7.414;2023-02-23T07:27:34;166.30;;;53.92;;
35803;SDS011;21924;51.934;7.414;2023-02-23T07:30:19;172.23;;;54.88;;
35803;SDS011;21924;51.934;7.414;2023-02-23T07:33:07;150.68;;;51.67;;
35803;SDS011;21924;51.934;7.414;2023-02-23T07:35:51;173.13;;;55.10;;
35803;SDS011;21924;51.934;7.414;2023-02-23T07:38:35;151.88;;;50.75;;
35803;SDS011;21924;51.934;7.414;2023-02-23T07:41:20;166.10;;;53.67;;
35803;SDS011;21924;51.934;7.414;2023-02-23T07:44:04;145.00;;;50.28;;
35803;SDS011;21924;51.934;7.414;2023-02-23T07:46:48;141.63;;;48.08;;
35803;SDS011;21924;51.934;7.414;2023-02-23T07:49:33;151.27;;;49.63;;
35803;SDS011;21924;51.934;7.414;2023-02-23T07:52:17;134.27;;;47.33;;
35803;SDS011;21924;51.934;7.414;2023-02-23T07:55:02;138.65;;;49.05;;
35803;SDS011;21924;51.934;7.414;2023-02-23T07:57:46;131.27;;;46.78;;
35803;SDS011;21924;51.934;7.414;2023-02-23T08:00:31;143.30;;;49.17;;
35803;SDS011;21924;51.934;7.414;2023-02-23T08:03:16;136.65;;;45.95;;
35803;SDS011;21924;51.934;7.414;2023-02-23T08:06:00;128.23;;;42.97;;
35803;SDS011;21924;51.934;7.414;2023-02-23T08:08:45;139.25;;;42.72;;
35803;SDS011;21924;51.934;7.414;2023-02-23T08:11:29;127.53;;;43.47;;
35803;SDS011;21924;51.934;7.414;2023-02-23T08:14:14;129.23;;;40.88;;
35803;SDS011;21924;51.934;7.414;2023-02-23T08:16:58;126.00;;;41.17;;
35803;SDS011;21924;51.934;7.414;2023-02-23T08:19:44;121.07;;;42.40;;
35803;SDS011;21924;51.934;7.414;2023-02-23T08:22:28;112.07;;;38.13;;
35803;SDS011;21924;51.934;7.414;2023-02-23T08:25:12;116.25;;;37.50;;
35803;SDS011;21924;51.934;7.414;2023-02-23T08:27:57;114.93;;;38.20;;
35803;SDS011;21924;51.934;7.414;2023-02-23T08:30:46;122.95;;;40.28;;
35803;SDS011;21924;51.934;7.414;2023-02-23T08:33:31;117.10;;;38.30;;
35803;SDS011;21924;51.934;7.414;2023-02-23T08:36:15;109.30;;;36.85;;
35803;SDS011;21924;51.934;7.414;2023-02-23T08:39:00;111.00;;;36.58;;
35803;SDS011;21924;51.934;7.414;2023-02-23T08:41:44;110.40;;;37.95;;
35803;SDS011;21924;51.934;7.414;2023-02-23T08:44:29;113.25;;;37.55;;
35803;SDS011;21924;51.934;7.414;2023-02-23T08:47:14;122.45;;;39.70;;
35803;SDS011;21924;51.934;7.414;2023-02-23T08:49:59;108.93;;;36.50;;
35803;SDS011;21924;51.934;7.414;2023-02-23T08:52:43;111.70;;;35.70;;
35803;SDS011;21924;51.934;7.414;2023-02-23T08:55:27;112.70;;;36.67;;
35803;SDS011;21924;51.934;7.414;2023-02-23T08:58:12;115.93;;;38.15;;
35803;SDS011;21924;51.934;7.414;2023-02-23T09:00:56;122.20;;;34.35;;
35803;SDS011;21924;51.934;7.414;2023-02-23T09:03:41;109.65;;;34.63;;
35803;SDS011;21924;51.934;7.414;2023-02-23T09:06:25;103.88;;;32.70;;
35803;SDS011;21924;51.934;7.414;2023-02-23T09:09:10;112.10;;;32.70;;
35803;SDS011;21924;51.934;7.414;2023-02-23T09:11:54;103.55;;;34.33;;
35803;SDS011;21924;51.934;7.414;2023-02-23T09:14:38;97.25;;;31.63;;
35803;SDS011;21924;51.934;7.414;2023-02-23T09:17:23;101.47;;;30.40;;
35803;SDS011;21924;51.934;7.414;2023-02-23T09:20:09;96.15;;;30.35;;
35803;SDS011;21924;51.934;7.414;2023-02-23T09:22:56;97.22;;;33.03;;
35803;SDS011;21924;51.934;7.414;2023-02-23T09:25:41;98.97;;;33.67;;
35803;SDS011;21924;51.934;7.414;2023-02-23T09:28:25;108.95;;;32.72;;
35803;SDS011;21924;51.934;7.414;2023-02-23T09:31:14;100.80;;;32.55;;
35803;SDS011;21924;51.934;7.414;2023-02-23T09:34:00;101.28;;;35.25;;
35803;SDS011;21924;51.934;7.414;2023-02-23T09:36:45;105.25;;;33.00;;
35803;SDS011;21924;51.934;7.414;2023-02-23T09:39:30;109.80;;;36.13;;
35803;SDS011;21924;51.934;7.414;2023-02-23T09:42:35;108.47;;;34.00;;
35803;SDS011;21924;51.934;7.414;2023-02-23T09:45:46;112.82;;;35.00;;
35803;SDS011;21924;51.934;7.414;2023-02-23T09:48:35;102.45;;;33.53;;
35803;SDS011;21924;51.934;7.414;2023-02-23T09:51:19;99.55;;;35.35;;
35803;SDS011;21924;51.934;7.414;2023-02-23T09:54:05;106.33;;;34.87;;
35803;SDS011;21924;51.934;7.414;2023-02-23T09:56:53;95.20;;;30.83;;
35803;SDS011;21924;51.934;7.414;2023-02-23T09:59:41;92.22;;;32.40;;
35803;SDS011;21924;51.934;7.414;2023-02-23T10:05:16;87.57;;;30.50;;
35803;SDS011;21924;51.934;7.414;2023-02-23T10:08:02;96.45;;;30.88;;
35803;SDS011;21924;51.934;7.414;2023-02-23T10:10:53;99.30;;;30.45;;
35803;SDS011;21924;51.934;7.414;2023-02-23T10:14:14;90.75;;;29.35;;
35803;SDS011;21924;51.934;7.414;2023-02-23T10:23:02;81.70;;;30.13;;
35803;SDS011;21924;51.934;7.414;2023-02-23T10:25:50;87.68;;;26.77;;
35803;SDS011;21924;51.934;7.414;2023-02-23T10:28:36;72.95;;;26.48;;
35803;SDS011;21924;51.934;7.414;2023-02-23T10:31:29;78.43;;;27.00;;
35803;SDS011;21924;51.934;7.414;2023-02-23T10:34:19;84.75;;;25.27;;
35803;SDS011;21924;51.934;7.414;2023-02-23T10:37:05;83.38;;;28.65;;
35803;SDS011;21924;51.934;7.414;2023-02-23T10:39:53;81.57;;;27.38;;
35803;SDS011;21924;51.934;7.414;2023-02-23T10:42:37;88.88;;;26.50;;
35803;SDS011;21924;51.934;7.414;2023-02-23T10:45:23;91.80;;;27.25;;
35803;SDS011;21924;51.934;7.414;2023-02-23T10:48:15;90.88;;;26.67;;
35803;SDS011;21924;51.934;7.414;2023-02-23T10:51:01;88.57;;;26.65;;
35803;SDS011;21924;51.934;7.414;2023-02-23T10:53:46;75.63;;;23.63;;
35803;SDS011;21924;51.934;7.414;2023-02-23T10:56:30;71.15;;;22.58;;
35803;SDS011;21924;51.934;7.414;2023-02-23T10:59:25;84.65;;;23.92;;
35803;SDS011;21924;51.934;7.414;2023-02-23T11:02:21;79.43;;;24.70;;
35803;SDS011;21924;51.934;7.414;2023-02-23T11:05:12;71.18;;;21.98;;
35803;SDS011;21924;51.934;7.414;2023-02-23T11:08:30;73.75;;;22.38;;
35803;SDS011;21924;51.934;7.414;2023-02-23T11:11:27;73.68;;;22.70;;
35803;SDS011;21924;51.934;7.414;2023-02-23T11:14:15;77.75;;;21.23;;
35803;SDS011;21924;51.934;7.414;2023-02-23T11:16:59;67.45;;;20.98;;
35803;SDS011;21924;51.934;7.414;2023-02-23T11:19:43;69.13;;;21.92;;
35803;SDS011;21924;51.934;7.414;2023-02-23T11:22:31;73.43;;;20.60;;
35803;SDS011;21924;51.934;7.414;2023-02-23T11:25:24;54.40;;;19.33;;
35803;SDS011;21924;51.934;7.414;2023-02-23T11:28:15;70.82;;;23.75;;
35803;SDS011;21924;51.934;7.414;2023-02-23T11:31:29;64.50;;;20.88;;
35803;SDS011;21924;51.934;7.414;2023-02-23T11:34:29;59.80;;;20.13;;
35803;SDS011;21924;51.934;7.414;2023-02-23T11:37:25;63.42;;;20.10;;
35803;SDS011;21924;51.934;7.414;2023-02-23T11:40:30;58.90;;;20.13;;
35803;SDS011;21924;51.934;7.414;2023-02-23T11:43:17;66.63;;;20.73;;
35803;SDS011;21924;51.934;7.414;2023-02-23T11:49:42;54.80;;;19.13;;
35803;SDS011;21924;51.934;7.414;2023-02-23T11:52:28;50.17;;;18.52;;
35803;SDS011;21924;51.934;7.414;2023-02-23T11:55:14;61.83;;;21.05;;
35803;SDS011;21924;51.934;7.414;2023-02-23T12:01:41;57.65;;;18.83;;
35803;SDS011;21924;51.934;7.414;2023-02-23T12:04:33;64.75;;;20.30;;
35803;SDS011;21924;51.934;7.414;2023-02-23T12:07:28;51.15;;;18.50;;
35803;SDS011;21924;51.934;7.414;2023-02-23T12:13:25;50.42;;;18.90;;
35803;SDS011;21924;51.934;7.414;2023-02-23T12:16:36;51.55;;;18.83;;
35803;SDS011;21924;51.934;7.414;2023-02-23T12:19:27;45.35;;;18.65;;
35803;SDS011;21924;51.934;7.414;2023-02-23T12:22:19;42.25;;;17.52;;
35803;SDS011;21924;51.934;7.414;2023-02-23T12:25:19;48.97;;;17.58;;
35803;SDS011;21924;51.934;7.414;2023-02-23T12:28:16;50.38;;;19.15;;
35803;SDS011;21924;51.934;7.414;2023-02-23T12:34:20;47.65;;;17.40;;
35803;SDS011;21924;51.934;7.414;2023-02-23T12:37:52;49.45;;;17.63;;
35803;SDS011;21924;51.934;7.414;2023-02-23T12:40:24;39.45;;;15.80;;
35803;SDS011;21924;51.934;7.414;2023-02-23T12:43:15;47.83;;;16.67;;
35803;SDS011;21924;51.934;7.414;2023-02-23T12:46:12;42.80;;;16.77;;
35803;SDS011;21924;51.934;7.414;2023-02-23T12:49:05;43.05;;;15.52;;
35803;SDS011;21924;51.934;7.414;2023-02-23T12:52:05;41.25;;;16.17;;
35803;SDS011;21924;51.934;7.414;2023-02-23T12:55:09;41.03;;;15.20;;
35803;SDS011;21924;51.934;7.414;2023-02-23T12:57:57;40.65;;;16.05;;
35803;SDS011;21924;51.934;7.414;2023-02-23T13:00:52;41.08;;;14.93;;
35803;SDS011;21924;51.934;7.414;2023-02-23T13:12:49;42.67;;;15.40;;
35803;SDS011;21924;51.934;7.414;2023-02-23T13:18:46;53.08;;;16.58;;
35803;SDS011;21924;51.934;7.414;2023-02-23T13:21:50;47.97;;;17.92;;
35803;SDS011;21924;51.934;7.414;2023-02-23T13:24:48;51.60;;;18.38;;
35803;SDS011;21924;51.934;7.414;2023-02-23T13:27:36;52.45;;;18.77;;
35803;SDS011;21924;51.934;7.414;2023-02-23T13:30:25;48.30;;;18.00;;
35803;SDS011;21924;51.934;7.414;2023-02-23T13:33:25;48.83;;;16.65;;
35803;SDS011;21924;51.934;7.414;2023-02-23T13:36:11;51.75;;;17.92;;
35803;SDS011;21924;51.934;7.414;2023-02-23T13:54:34;54.95;;;19.48;;
35803;SDS011;21924;51.934;7.414;2023-02-23T13:57:19;52.10;;;18.40;;
35803;SDS011;21924;51.934;7.414;2023-02-23T14:00:13;48.60;;;17.45;;
35803;SDS011;21924;51.934;7.414;2023-02-23T14:03:06;57.05;;;19.67;;
35803;SDS011;21924;51.934;7.414;2023-02-23T14:05:51;50.95;;;17.10;;
35803;SDS011;21924;51.934;7.414;2023-02-23T14:08:40;55.05;;;18.83;;
35803;SDS011;21924;51.934;7.414;2023-02-23T14:11:33;53.35;;;17.23;;
35803;SDS011;21924;51.934;7.414;2023-02-23T14:20:18;53.65;;;17.33;;
35803;SDS011;21924;51.934;7.414;2023-02-23T14:23:27;46.63;;;15.40;;
35803;SDS011;21924;51.934;7.414;2023-02-23T14:26:17;53.85;;;18.08;;
35803;SDS011;21924;51.934;7.414;2023-02-23T14:29:21;42.95;;;15.10;;
35803;SDS011;21924;51.934;7.414;2023-02-23T14:34:59;39.75;;;14.43;;
35803;SDS011;21924;51.934;7.414;2023-02-23T14:37:48;52.40;;;14.75;;
35803;SDS011;21924;51.934;7.414;2023-02-23T14:40:39;49.03;;;15.35;;
35803;SDS011;21924;51.934;7.414;2023-02-23T14:46:22;45.78;;;16.10;;
35803;SDS011;21924;51.934;7.414;2023-02-23T14:49:09;55.38;;;15.75;;
35803;SDS011;21924;51.934;7.414;2023-02-23T14:52:21;53.20;;;17.55;;
35803;SDS011;21924;51.934;7.414;2023-02-23T14:57:54;53.22;;;18.25;;
35803;SDS011;21924;51.934;7.414;2023-02-23T15:00:40;51.15;;;17.23;;
35803;SDS011;21924;51.934;7.414;2023-02-23T15:03:26;49.25;;;17.20;;
35803;SDS011;21924;51.934;7.414;2023-02-23T15:06:11;58.90;;;17.45;;
35803;SDS011;21924;51.934;7.414;2023-02-23T15:08:55;58.08;;;19.27;;
35803;SDS011;21924;51.934;7.414;2023-02-23T15:11:40;58.80;;;18.08;;
35803;SDS011;21924;51.934;7.414;2023-02-23T15:14:29;58.47;;;17.90;;
35803;SDS011;21924;51.934;7.414;2023-02-23T15:17:17;62.00;;;18.75;;
35803;SDS011;21924;51.934;7.414;2023-02-23T15:20:05;52.63;;;18.70;;
35803;SDS011;21924;51.934;7.414;2023-02-23T15:22:54;57.20;;;19.17;;
35803;SDS011;21924;51.934;7.414;2023-02-23T15:25:41;62.05;;;18.63;;
35803;SDS011;21924;51.934;7.414;2023-02-23T15:28:30;64.43;;;19.02;;
35803;SDS011;21924;51.934;7.414;2023-02-23T15:31:15;64.88;;;18.35;;
35803;SDS011;21924;51.934;7.414;2023-02-23T15:33:59;65.45;;;20.95;;
35803;SDS011;21924;51.934;7.414;2023-02-23T15:36:48;60.42;;;20.85;;
35803;SDS011;21924;51.934;7.414;2023-02-23T15:42:37;59.47;;;19.90;;
35803;SDS011;21924;51.934;7.414;2023-02-23T15:45:26;64.20;;;19.45;;
35803;SDS011;21924;51.934;7.414;2023-02-23T15:48:26;56.50;;;17.13;;
35803;SDS011;21924;51.934;7.414;2023-02-23T15:51:28;52.38;;;16.08;;
35803;SDS011;21924;51.934;7.414;2023-02-23T15:54:18;64.07;;;17.17;;
35803;SDS011;21924;51.934;7.414;2023-02-23T15:57:17;54.25;;;16.80;;
35803;SDS011;21924;51.934;7.414;2023-02-23T16:00:13;53.40;;;16.98;;
35803;SDS011;21924;51.934;7.414;2023-02-23T16:03:02;59.97;;;17.70;;
35803;SDS011;21924;51.934;7.414;2023-02-23T16:06:35;50.95;;;16.50;;
35803;SDS011;21924;51.934;7.414;2023-02-23T16:09:20;47.88;;;15.57;;
35803;SDS011;21924;51.934;7.414;2023-02-23T16:12:16;44.60;;;14.50;;
35803;SDS011;21924;51.934;7.414;2023-02-23T16:15:17;52.33;;;17.27;;
35803;SDS011;21924;51.934;7.414;2023-02-23T16:18:12;48.90;;;15.10;;
35803;SDS011;21924;51.934;7.414;2023-02-23T16:20:59;52.80;;;16.67;;
35803;SDS011;21924;51.934;7.414;2023-02-23T16:23:46;54.10;;;15.65;;
35803;SDS011;21924;51.934;7.414;2023-02-23T16:26:46;56.63;;;17.42;;
35803;SDS011;21924;51.934;7.414;2023-02-23T16:29:37;49.50;;;16.05;;
35803;SDS011;21924;51.934;7.414;2023-02-23T16:32:24;48.95;;;16.35;;
35803;SDS011;21924;51.934;7.414;2023-02-23T16:35:18;43.25;;;14.15;;
35803;SDS011;21924;51.934;7.414;2023-02-23T16:38:07;41.05;;;14.85;;
35803;SDS011;21924;51.934;7.414;2023-02-23T16:40:58;46.53;;;14.98;;
35803;SDS011;21924;51.934;7.414;2023-02-23T16:43:42;51.97;;;14.52;;
35803;SDS011;21924;51.934;7.414;2023-02-23T16:46:29;40.83;;;14.80;;
35803;SDS011;21924;51.934;7.414;2023-02-23T16:49:36;45.15;;;13.43;;
35803;SDS011;21924;51.934;7.414;2023-02-23T16:52:22;40.35;;;14.15;;
35803;SDS011;21924;51.934;7.414;2023-02-23T16:55:06;43.85;;;15.50;;
35803;SDS011;21924;51.934;7.414;2023-02-23T16:57:58;40.22;;;13.43;;
35803;SDS011;21924;51.934;7.414;2023-02-23T17:00:45;47.80;;;17.23;;
35803;SDS011;21924;51.934;7.414;2023-02-23T17:03:30;39.63;;;15.18;;
35803;SDS011;21924;51.934;7.414;2023-02-23T17:06:14;47.85;;;15.63;;
35803;SDS011;21924;51.934;7.414;2023-02-23T17:08:59;49.55;;;14.82;;
35803;SDS011;21924;51.934;7.414;2023-02-23T17:11:43;58.22;;;16.70;;
35803;SDS011;21924;51.934;7.414;2023-02-23T17:17:16;41.72;;;13.77;;
35803;SDS011;21924;51.934;7.414;2023-02-23T17:20:01;47.85;;;17.50;;
35803;SDS011;21924;51.934;7.414;2023-02-23T17:22:48;51.72;;;18.05;;
35803;SDS011;21924;51.934;7.414;2023-02-23T17:25:32;54.40;;;16.90;;
35803;SDS011;21924;51.934;7.414;2023-02-23T17:28:17;48.03;;;17.40;;
35803;SDS011;21924;51.934;7.414;2023-02-23T17:31:01;54.92;;;18.08;;
35803;SDS011;21924;51.934;7.414;2023-02-23T17:33:46;48.93;;;17.40;;
35803;SDS011;21924;51.934;7.414;2023-02-23T17:36:30;57.53;;;17.35;;
35803;SDS011;21924;51.934;7.414;2023-02-23T17:39:15;55.17;;;16.70;;
35803;SDS011;21924;51.934;7.414;2023-02-23T17:41:59;61.80;;;17.35;;
35803;SDS011;21924;51.934;7.414;2023-02-23T17:44:44;54.33;;;19.20;;
35803;SDS011;21924;51.934;7.414;2023-02-23T17:47:28;53.15;;;17.10;;
35803;SDS011;21924;51.934;7.414;2023-02-23T17:50:13;55.28;;;17.05;;
35803;SDS011;21924;51.934;7.414;2023-02-23T17:52:57;59.75;;;18.33;;
35803;SDS011;21924;51.934;7.414;2023-02-23T17:55:42;59.70;;;18.33;;
35803;SDS011;21924;51.934;7.414;2023-02-23T17:58:26;60.17;;;16.88;;
35803;SDS011;21924;51.934;7.414;2023-02-23T18:01:11;52.95;;;18.35;;
35803;SDS011;21924;51.934;7.414;2023-02-23T18:03:55;59.15;;;18.40;;
35803;SDS011;21924;51.934;7.414;2023-02-23T18:06:41;64.72;;;19.13;;